Terminal Aerodrome Forecast
Issued by NWS Cleveland, OH

Home | Current Version | Previous Version | Graphics & Text | Print | Product List | Glossary On
Versions: 1 2 3 4 5 6 7 8 9 10 11 12 13 14 15 16 17 18 19 20 21 22
000
FTUS41 KCLE 190536
TAFCAK
TAF
KCAK 190536Z 1906/2006 23008KT 4SM BR OVC004
     FM191500 21006KT P6SM OVC007
     FM191800 18006KT P6SM OVC250
     FM200500 11006KT P6SM OVC080=

USA.gov is the U.S. government's official web portal to all federal, state and local government web resources and services.